Time;durP1;ratioP1;P1;durP2;ratioP2;P2;SDS_P1;SDS_P2;PMS_P1;PMS_P2;Temp;Humidity;BMP_temperature;BMP_pressure;BME280_temperature;BME280_humidity;BME280_pressure;Samples;Min_cycle;Max_cycle;Signal;HPM_P1;HPM_P2
2022/03/25 00:00:44;;;;;;;;;50.25;39.00;;;;;13.87;35.38;102454.09;5051575;28;45348;-56
2022/03/25 00:03:10;;;;;;;;;52.00;39.75;;;;;13.84;35.19;102448.94;5048043;28;45527;-57
2022/03/25 00:05:36;;;;;;;;;60.25;42.25;;;;;13.78;35.32;102455.38;5049244;28;45435;-60
2022/03/25 00:08:02;;;;;;;;;56.50;44.75;;;;;13.76;35.37;102459.03;5050599;28;45455;-58
2022/03/25 00:10:28;;;;;;;;;51.75;40.75;;;;;13.73;35.52;102456.50;5051267;28;45534;-60
2022/03/25 00:12:53;;;;;;;;;53.75;39.75;;;;;13.70;35.66;102457.50;5048800;28;45356;-60
2022/03/25 00:15:19;;;;;;;;;58.00;44.75;;;;;13.67;35.77;102465.59;5049432;28;45252;-59
2022/03/25 00:17:45;;;;;;;;;54.50;41.75;;;;;13.62;35.50;102457.84;5050043;28;45198;-57
2022/03/25 00:20:10;;;;;;;;;56.75;44.00;;;;;13.61;35.63;102458.78;5044950;28;45474;-60
2022/03/25 00:22:36;;;;;;;;;62.25;45.25;;;;;13.60;35.76;102461.50;5046798;28;45655;-58
2022/03/25 00:25:05;;;;;;;;;61.50;44.00;;;;;13.59;35.84;102465.94;5048711;28;45188;-57
2022/03/25 00:27:35;;;;;;;;;56.50;40.50;;;;;13.58;36.02;102455.38;5047555;28;45351;-57
2022/03/25 00:30:02;;;;;;;;;55.75;42.50;;;;;13.55;36.02;102459.03;5037136;28;45511;-57
2022/03/25 00:32:27;;;;;;;;;60.75;44.50;;;;;13.52;36.06;102458.31;5047450;28;46399;-58
2022/03/25 00:34:53;;;;;;;;;59.25;45.50;;;;;13.49;36.12;102461.09;5050071;28;45411;-57
2022/03/25 00:37:19;;;;;;;;;57.50;42.25;;;;;13.47;36.34;102455.00;5047613;28;45313;-57
2022/03/25 00:39:45;;;;;;;;;56.00;43.25;;;;;13.46;36.08;102455.94;5048737;28;45574;-56
2022/03/25 00:42:12;;;;;;;;;55.00;40.50;;;;;13.44;36.24;102456.03;5051424;28;45967;-58
2022/03/25 00:44:38;;;;;;;;;48.50;36.75;;;;;13.40;36.29;102455.28;5052913;28;45349;-57
2022/03/25 00:47:04;;;;;;;;;53.75;41.50;;;;;13.39;36.49;102456.19;5052055;28;45320;-57
2022/03/25 00:49:30;;;;;;;;;58.00;43.25;;;;;13.34;36.60;102458.19;5034133;28;45351;-57
2022/03/25 00:51:56;;;;;;;;;59.50;46.25;;;;;13.32;36.56;102459.19;5052785;28;45466;-60
2022/03/25 00:54:23;;;;;;;;;63.75;45.75;;;;;13.26;36.64;102451.50;5048405;28;45377;-56
2022/03/25 00:56:48;;;;;;;;;54.50;40.50;;;;;13.24;36.73;102445.41;5049822;28;45383;-59
2022/03/25 00:59:15;;;;;;;;;54.50;43.50;;;;;13.23;36.72;102451.66;5049742;28;45494;-53
2022/03/25 01:01:41;;;;;;;;;58.25;44.75;;;;;13.20;36.82;102454.44;5049772;28;45596;-57
2022/03/25 01:04:08;;;;;;;;;56.25;45.25;;;;;13.17;36.83;102457.16;5049068;28;45764;-57
2022/03/25 01:06:34;;;;;;;;;61.50;47.00;;;;;13.13;36.99;102453.78;5048197;28;45501;-58
2022/03/25 01:09:01;;;;;;;;;50.25;39.00;;;;;13.11;36.73;102453.88;5053150;28;45582;-57
2022/03/25 01:11:27;;;;;;;;;55.50;42.50;;;;;13.08;37.11;102446.03;5050837;28;46244;-57
2022/03/25 01:13:53;;;;;;;;;61.25;46.50;;;;;13.06;37.08;102453.19;5050553;28;45491;-58
2022/03/25 01:16:19;;;;;;;;;54.50;42.25;;;;;13.04;37.09;102454.19;5028584;28;45648;-56
2022/03/25 01:18:44;;;;;;;;;54.00;37.50;;;;;13.00;37.25;102448.16;5051355;28;45470;-54
2022/03/25 01:21:10;;;;;;;;;43.00;37.50;;;;;12.97;37.44;102448.28;5047608;28;46186;-55
2022/03/25 01:23:36;;;;;;;;;45.75;36.00;;;;;12.93;37.56;102444.03;5049843;28;45391;-56
2022/03/25 01:26:04;;;;;;;;;50.25;40.25;;;;;12.91;37.35;102440.59;5053096;28;45437;-57
2022/03/25 01:28:34;;;;;;;;;59.50;46.25;;;;;12.89;37.42;102441.59;5050647;28;45518;-57
2022/03/25 01:31:01;;;;;;;;;51.75;43.00;;;;;12.86;37.41;102438.13;5051202;28;46073;-58
2022/03/25 01:33:27;;;;;;;;;59.25;44.00;;;;;12.83;37.62;102427.69;5032209;28;45638;-63
2022/03/25 01:35:53;;;;;;;;;52.50;37.50;;;;;12.82;37.55;102427.78;5050516;28;45739;-57
2022/03/25 01:38:18;;;;;;;;;58.75;47.00;;;;;12.81;37.70;102426.06;5050347;28;45602;-57
2022/03/25 01:40:44;;;;;;;;;63.25;44.50;;;;;12.79;37.93;102427.88;5050951;28;47320;-56
2022/03/25 01:43:09;;;;;;;;;59.00;47.00;;;;;12.76;38.20;102422.72;5049837;28;45498;-57
2022/03/25 01:45:37;;;;;;;;;57.75;45.00;;;;;12.73;38.18;102428.16;5056035;28;45538;-57
2022/03/25 01:48:14;;;;;;;;;50.25;40.75;;;;;12.70;38.05;102425.63;5056243;28;45509;-56
2022/03/25 01:50:42;;;;;;;;;55.25;41.25;;;;;12.69;38.24;102426.53;5052350;28;46351;-57
2022/03/25 01:53:17;;;;;;;;;60.50;45.25;;;;;12.69;38.39;102423.91;5046046;28;45670;-58
2022/03/25 01:55:56;;;;;;;;;55.50;43.25;;;;;12.68;38.26;102428.34;5051119;28;45360;-58
2022/03/25 01:58:22;;;;;;;;;59.00;44.50;;;;;12.65;38.34;102428.47;5065621;28;45373;-58
2022/03/25 02:00:49;;;;;;;;;56.25;44.00;;;;;12.63;38.02;102414.44;5041100;28;45316;-58
2022/03/25 02:03:16;;;;;;;;;57.25;45.00;;;;;12.63;38.68;102417.06;5041193;28;45433;-58
2022/03/25 02:05:43;;;;;;;;;56.00;40.75;;;;;12.60;38.65;102419.00;5041216;28;45258;-58
2022/03/25 02:08:09;;;;;;;;;67.25;47.25;;;;;12.58;38.45;102414.63;5040727;28;45587;-57
2022/03/25 02:10:36;;;;;;;;;63.75;49.00;;;;;12.58;38.65;102425.22;5040969;28;46605;-58
2022/03/25 02:13:02;;;;;;;;;63.75;45.25;;;;;12.54;38.58;102417.47;5040985;28;45395;-57
2022/03/25 02:15:35;;;;;;;;;58.75;47.00;;;;;12.52;38.45;102414.88;5041601;28;45381;-58
2022/03/25 02:18:02;;;;;;;;;63.50;46.75;;;;;12.52;38.81;102417.53;5041234;28;45559;-57
2022/03/25 02:20:28;;;;;;;;;53.50;40.25;;;;;12.51;38.57;102412.31;5040707;28;47123;-58
2022/03/25 02:22:53;;;;;;;;;59.00;44.75;;;;;12.48;39.06;102408.00;5039599;28;45428;-58
2022/03/25 02:25:23;;;;;;;;;61.00;43.75;;;;;12.47;38.85;102418.63;5041340;28;45594;-58
2022/03/25 02:27:48;;;;;;;;;51.00;42.25;;;;;12.44;38.86;102413.47;5041026;28;45408;-58
2022/03/25 02:30:14;;;;;;;;;62.25;42.25;;;;;12.44;38.82;102414.34;5040885;28;45311;-58
2022/03/25 02:32:40;;;;;;;;;54.75;42.25;;;;;12.45;38.94;102420.47;5040685;28;45418;-58
2022/03/25 02:35:06;;;;;;;;;58.25;43.75;;;;;12.42;38.84;102415.31;5040784;28;45301;-57
2022/03/25 02:37:32;;;;;;;;;58.25;44.25;;;;;12.38;38.82;102413.72;5039923;28;46513;-58
2022/03/25 02:39:57;;;;;;;;;53.25;44.00;;;;;12.34;39.22;102418.28;5039813;28;46203;-58
2022/03/25 02:42:23;;;;;;;;;57.50;43.25;;;;;12.30;39.25;102414.88;5039095;28;45631;-58
2022/03/25 02:44:49;;;;;;;;;54.25;41.00;;;;;12.30;39.14;102416.66;5049158;28;45303;-58
2022/03/25 02:47:16;;;;;;;;;59.00;47.00;;;;;12.27;39.25;102419.44;5059870;28;45364;-58
2022/03/25 02:49:42;;;;;;;;;60.50;41.75;;;;;12.25;39.46;102418.66;5060194;28;45473;-58
2022/03/25 02:52:07;;;;;;;;;62.25;43.75;;;;;12.23;39.55;102420.47;5060691;28;45317;-58
2022/03/25 02:54:33;;;;;;;;;56.00;42.00;;;;;12.19;39.43;102418.88;5060431;28;45264;-58
2022/03/25 02:56:59;;;;;;;;;57.00;43.25;;;;;12.17;39.41;102423.38;5060778;28;45520;-58
2022/03/25 02:59:25;;;;;;;;;61.00;44.00;;;;;12.14;39.39;102420.81;5042709;28;45344;-58
2022/03/25 03:01:52;;;;;;;;;65.25;46.00;;;;;12.10;39.80;102419.25;5039903;28;45457;-58
2022/03/25 03:04:17;;;;;;;;;56.50;45.75;;;;;12.06;39.71;102422.91;5038729;28;45520;-58
2022/03/25 03:06:44;;;;;;;;;57.50;42.75;;;;;12.02;39.88;102415.09;5040605;28;45308;-58
2022/03/25 03:09:10;;;;;;;;;54.75;42.75;;;;;12.04;39.94;102424.75;5040091;28;45764;-58
2022/03/25 03:11:36;;;;;;;;;63.75;45.25;;;;;12.01;39.91;102423.09;5040295;28;45294;-58
2022/03/25 03:14:02;;;;;;;;;48.75;40.25;;;;;11.99;39.97;102427.56;5039933;28;45360;-58
2022/03/25 03:16:28;;;;;;;;;60.00;45.00;;;;;11.95;40.17;102425.97;5040186;28;45725;-58
2022/03/25 03:18:53;;;;;;;;;60.00;46.75;;;;;11.93;40.19;102423.38;5039817;28;45396;-58
2022/03/25 03:21:23;;;;;;;;;54.50;42.00;;;;;11.88;40.40;102425.34;5039856;28;45427;-58
2022/03/25 03:23:51;;;;;;;;;60.00;44.25;;;;;11.86;40.60;102424.53;5040083;28;45295;-58
2022/03/25 03:26:17;;;;;;;;;58.50;41.00;;;;;11.83;40.52;102422.00;5040204;28;45495;-57
2022/03/25 03:28:44;;;;;;;;;51.00;39.75;;;;;11.79;40.67;102419.50;5039823;28;45395;-57
2022/03/25 03:31:09;;;;;;;;;58.25;40.75;;;;;11.76;40.91;102417.81;5039527;28;45297;-57
2022/03/25 03:33:35;;;;;;;;;56.75;41.25;;;;;11.74;40.70;102423.16;5040069;28;45296;-57
2022/03/25 03:36:00;;;;;;;;;61.00;42.00;;;;;11.74;40.85;102415.25;5040209;28;45214;-57
2022/03/25 03:38:26;;;;;;;;;62.00;46.50;;;;;11.73;40.85;102410.03;5020261;28;46500;-57
2022/03/25 03:40:52;;;;;;;;;59.25;44.00;;;;;11.73;41.08;102418.81;5045344;28;45388;-57
2022/03/25 03:43:17;;;;;;;;;61.25;45.00;;;;;11.73;41.07;102413.53;5038254;28;45531;-58
2022/03/25 03:45:43;;;;;;;;;58.75;45.25;;;;;11.72;41.08;102418.88;5049552;28;45364;-58
2022/03/25 03:48:08;;;;;;;;;57.25;45.00;;;;;11.72;41.33;102417.09;5057739;28;45515;-58
2022/03/25 03:50:34;;;;;;;;;66.50;49.50;;;;;11.72;40.87;102408.31;5058215;28;45352;-58
2022/03/25 03:53:00;;;;;;;;;57.00;46.50;;;;;11.70;41.42;102408.38;5059434;28;45634;-58
2022/03/25 03:55:26;;;;;;;;;58.25;43.75;;;;;11.68;41.38;102412.81;5059866;28;45418;-58
2022/03/25 03:57:51;;;;;;;;;61.00;46.25;;;;;11.65;41.54;102406.81;5054872;28;45717;-58
2022/03/25 04:00:16;;;;;;;;;61.25;43.00;;;;;11.62;41.22;102407.81;5039542;28;45480;-58
2022/03/25 04:02:44;;;;;;;;;55.75;41.00;;;;;11.61;41.74;102410.47;5039382;28;45411;-58
2022/03/25 04:05:10;;;;;;;;;53.25;41.00;;;;;11.59;41.79;102409.69;5039384;28;45487;-59
2022/03/25 04:07:46;;;;;;;;;63.25;45.50;;;;;11.56;41.69;102423.00;5039083;28;45426;-58
2022/03/25 04:10:14;;;;;;;;;49.25;38.00;;;;;11.53;41.86;102413.38;5039484;28;45367;-59
2022/03/25 04:12:40;;;;;;;;;62.25;45.00;;;;;11.51;41.98;102414.38;5039516;28;45834;-57
2022/03/25 04:15:10;;;;;;;;;62.00;46.00;;;;;11.49;42.02;102418.84;5040701;28;45733;-57
2022/03/25 04:17:38;;;;;;;;;54.50;43.50;;;;;11.48;41.67;102420.63;5042610;28;46296;-57
2022/03/25 04:20:04;;;;;;;;;58.00;45.25;;;;;11.48;42.30;102417.13;5042461;28;45378;-57
2022/03/25 04:22:30;;;;;;;;;55.75;42.25;;;;;11.48;42.00;102420.63;5043123;28;45436;-57
2022/03/25 04:24:55;;;;;;;;;60.25;43.00;;;;;11.48;42.12;102417.13;5042861;28;45349;-57
2022/03/25 04:27:21;;;;;;;;;61.25;46.75;;;;;11.45;42.02;102418.97;5042345;28;45381;-57
2022/03/25 04:29:47;;;;;;;;;57.75;45.25;;;;;11.44;42.30;102419.88;5042686;28;45392;-57
2022/03/25 04:32:12;;;;;;;;;61.50;47.25;;;;;11.45;41.83;102426.00;5043023;28;45408;-57
2022/03/25 04:34:38;;;;;;;;;57.00;44.50;;;;;11.43;42.35;102422.56;5042406;28;45462;-57
2022/03/25 04:37:04;;;;;;;;;60.50;45.00;;;;;11.43;42.74;102419.94;5042633;28;45931;-57
2022/03/25 04:39:30;;;;;;;;;62.75;47.00;;;;;11.41;42.39;102427.03;5030410;28;45686;-57
2022/03/25 04:41:55;;;;;;;;;56.00;41.75;;;;;11.39;42.66;102432.38;5041323;28;45479;-57
2022/03/25 04:44:20;;;;;;;;;59.75;44.25;;;;;11.35;42.70;102427.25;5040962;28;45545;-57
2022/03/25 04:46:46;;;;;;;;;59.50;42.50;;;;;11.28;42.82;102429.25;5060886;28;45363;-57
2022/03/25 04:49:11;;;;;;;;;60.50;46.25;;;;;11.27;42.73;102429.31;5061450;28;45652;-57
2022/03/25 04:51:37;;;;;;;;;63.00;47.25;;;;;11.24;42.73;102432.91;5062985;28;45301;-56
2022/03/25 04:54:03;;;;;;;;;52.25;35.00;;;;;11.22;42.98;102434.75;5062609;28;45467;-56
2022/03/25 04:56:30;;;;;;;;;61.00;47.75;;;;;11.22;42.88;102440.03;5062289;28;46168;-57
2022/03/25 04:58:55;;;;;;;;;59.50;45.25;;;;;11.19;43.59;102437.47;5048674;28;45431;-57
2022/03/25 05:01:21;;;;;;;;;54.25;41.50;;;;;11.18;43.54;102433.97;5042314;28;45423;-57
2022/03/25 05:03:46;;;;;;;;;62.00;45.00;;;;;11.16;43.51;102446.38;5042670;28;45237;-56
2022/03/25 05:06:12;;;;;;;;;59.75;46.25;;;;;11.15;43.00;102446.44;5048804;28;46456;-57
2022/03/25 05:08:37;;;;;;;;;67.25;45.25;;;;;11.14;43.10;102444.72;5062402;28;45416;-57
2022/03/25 05:11:03;;;;;;;;;63.50;44.50;;;;;11.12;42.98;102444.75;5062262;28;45494;-57
2022/03/25 05:13:28;;;;;;;;;55.50;38.25;;;;;11.11;43.07;102457.97;5062732;28;45385;-57
2022/03/25 05:15:54;;;;;;;;;60.75;43.50;;;;;11.09;43.32;102452.78;5062274;28;45516;-57
2022/03/25 05:18:19;;;;;;;;;64.25;48.50;;;;;11.09;43.85;102458.03;5062585;28;45296;-57
2022/03/25 05:20:45;;;;;;;;;60.00;43.25;;;;;11.09;43.48;102451.91;5062350;28;45465;-57
2022/03/25 05:23:10;;;;;;;;;53.50;44.25;;;;;11.08;43.22;102456.31;5062408;28;45237;-57
2022/03/25 05:25:36;;;;;;;;;60.00;46.25;;;;;11.08;43.52;102453.69;5060149;28;45234;-58
2022/03/25 05:28:02;;;;;;;;;64.00;44.00;;;;;11.08;43.68;102453.69;5062188;28;45225;-57
2022/03/25 05:30:31;;;;;;;;;56.25;42.25;;;;;11.06;43.44;102455.53;5062445;28;45256;-57
2022/03/25 05:32:57;;;;;;;;;51.75;37.75;;;;;11.06;43.44;102457.28;5044615;28;45483;-56
2022/03/25 05:35:24;;;;;;;;;60.00;44.67;;;;;11.02;43.38;102447.75;5062173;28;46602;-57
2022/03/25 05:37:51;;;;;;;;;62.33;45.33;;;;;11.00;44.06;102453.09;5062322;28;45286;-57
2022/03/25 05:40:18;;;;;;;;;64.75;43.50;;;;;10.98;43.43;102451.38;5053579;28;45637;-57
2022/03/25 05:42:45;;;;;;;;;61.50;47.25;;;;;10.96;43.85;102450.59;5040134;28;45414;-57
2022/03/25 05:45:11;;;;;;;;;58.00;47.00;;;;;10.96;44.28;102458.50;5046934;28;46299;-57
2022/03/25 05:47:38;;;;;;;;;57.25;44.50;;;;;10.97;43.78;102447.03;5059850;28;45377;-57
2022/03/25 05:50:04;;;;;;;;;51.00;42.75;;;;;10.95;44.27;102460.28;5061287;28;45495;-57
2022/03/25 05:52:30;;;;;;;;;57.50;44.75;;;;;10.96;43.85;102456.72;5061996;28;45339;-57
2022/03/25 05:54:56;;;;;;;;;63.00;43.00;;;;;10.97;44.18;102460.22;5062150;28;46144;-57
2022/03/25 05:57:22;;;;;;;;;59.00;44.25;;;;;10.96;43.94;102466.41;5061994;28;45232;-57
2022/03/25 05:59:47;;;;;;;;;63.75;47.25;;;;;10.94;43.90;102461.19;5041882;28;45310;-57
2022/03/25 06:02:13;;;;;;;;;61.50;46.00;;;;;10.94;44.21;102470.88;5039791;28;45489;-57
2022/03/25 06:04:39;;;;;;;;;60.33;42.33;;;;;10.95;44.42;102472.59;5046518;28;46263;-57
2022/03/25 06:07:05;;;;;;;;;61.67;48.00;;;;;10.93;44.12;102474.44;5052099;28;45473;-57
2022/03/25 06:09:31;;;;;;;;;64.25;49.75;;;;;10.93;44.43;102472.66;5049241;28;45494;-57
2022/03/25 06:11:57;;;;;;;;;56.33;46.00;;;;;10.95;44.02;102477.88;5051631;28;45466;-57
2022/03/25 06:14:22;;;;;;;;;59.00;46.33;;;;;10.96;44.47;102479.59;5045390;28;46267;-57
2022/03/25 06:16:48;;;;;;;;;64.25;45.75;;;;;10.97;44.16;102481.31;5049275;28;45387;-57
2022/03/25 06:19:13;;;;;;;;;57.50;46.25;;;;;10.99;44.67;102480.38;5049553;28;45317;-56
2022/03/25 06:21:40;;;;;;;;;66.67;49.00;;;;;11.06;44.24;102491.56;5050797;28;45540;-57
2022/03/25 06:24:05;;;;;;;;;61.75;43.50;;;;;11.16;44.15;102490.34;5053110;28;45382;-57
2022/03/25 06:26:31;;;;;;;;;63.00;46.75;;;;;11.23;43.96;102493.66;5048575;28;45263;-57
2022/03/25 06:28:56;;;;;;;;;72.25;49.00;;;;;11.29;43.73;102496.06;5051900;28;45352;-57
2022/03/25 06:31:22;;;;;;;;;57.50;44.50;;;;;11.36;43.83;102493.16;5051424;28;45631;-57
2022/03/25 06:33:48;;;;;;;;;62.00;48.75;;;;;11.49;43.76;102498.03;5052176;28;45757;-57
2022/03/25 06:36:14;;;;;;;;;59.75;48.75;;;;;11.60;43.67;102494.06;5049724;28;45324;-59
2022/03/25 06:38:43;;;;;;;;;64.00;46.50;;;;;11.70;43.77;102492.84;5048736;28;46671;-59
2022/03/25 06:41:10;;;;;;;;;67.75;50.25;;;;;11.81;43.41;102492.50;5048188;28;45385;-58
2022/03/25 06:43:36;;;;;;;;;69.50;49.75;;;;;11.93;43.23;102501.75;5051310;28;46122;-58
2022/03/25 06:46:04;;;;;;;;;64.50;51.25;;;;;12.00;43.20;102497.94;5049241;28;45229;-57
2022/03/25 06:48:31;;;;;;;;;65.25;46.75;;;;;12.05;43.24;102508.34;5048710;28;45443;-59
2022/03/25 06:50:57;;;;;;;;;67.33;51.33;;;;;12.10;43.11;102504.63;5050713;28;45420;-58
2022/03/25 06:53:23;;;;;;;;;60.50;45.00;;;;;12.19;43.01;102514.00;5049493;28;45407;-58
2022/03/25 06:55:49;;;;;;;;;56.25;45.25;;;;;12.25;42.98;102516.41;5051994;28;45518;-57
2022/03/25 06:58:14;;;;;;;;;66.75;47.75;;;;;12.24;42.78;102518.19;5055633;28;45463;-55
2022/03/25 07:00:40;;;;;;;;;63.00;48.00;;;;;12.23;42.73;102510.28;5048916;28;45292;-57
2022/03/25 07:03:06;;;;;;;;;63.25;46.75;;;;;12.20;42.85;102506.00;5042649;28;46135;-58
2022/03/25 07:05:32;;;;;;;;;61.75;46.25;;;;;12.17;43.08;102513.19;5045013;28;45230;-58
2022/03/25 07:07:58;;;;;;;;;70.75;49.50;;;;;12.18;42.73;102509.63;5042342;28;45271;-58
2022/03/25 07:10:26;;;;;;;;;60.50;47.50;;;;;12.21;43.03;102517.44;5053562;28;45344;-59
2022/03/25 07:12:53;;;;;;;;;71.50;51.00;;;;;12.28;42.60;102521.56;5045413;28;46262;-58
2022/03/25 07:15:22;;;;;;;;;59.00;47.25;;;;;12.32;42.46;102522.28;5040257;28;45360;-58
2022/03/25 07:17:48;;;;;;;;;59.50;45.50;;;;;12.37;42.58;102525.63;5040587;28;45776;-58
2022/03/25 07:20:16;;;;;;;;;67.25;52.00;;;;;12.37;42.40;102517.69;5038506;28;45333;-58
2022/03/25 07:22:46;;;;;;;;;67.75;50.50;;;;;12.38;42.39;102530.00;5039067;28;46276;-58
2022/03/25 07:25:13;;;;;;;;;66.75;49.75;;;;;12.38;42.32;102525.56;5047369;28;45501;-58
2022/03/25 07:27:39;;;;;;;;;60.50;43.25;;;;;12.40;42.43;102533.44;5040293;28;45256;-58
2022/03/25 07:30:06;;;;;;;;;65.00;49.00;;;;;12.43;42.16;102522.75;5062548;28;45460;-59
2022/03/25 07:32:32;;;;;;;;;64.00;49.75;;;;;12.49;42.32;102526.03;5039901;28;46100;-58
2022/03/25 07:34:57;;;;;;;;;60.25;45.25;;;;;12.56;42.21;102535.44;5039974;28;45474;-58
2022/03/25 07:37:23;;;;;;;;;62.50;46.50;;;;;12.59;41.94;102537.09;5040305;28;45292;-58
2022/03/25 07:39:48;;;;;;;;;65.25;47.25;;;;;12.62;41.98;102538.75;5049438;28;45463;-58
2022/03/25 07:42:14;;;;;;;;;67.75;49.50;;;;;12.66;42.11;102538.59;5039641;28;46083;-58
2022/03/25 07:44:40;;;;;;;;;65.75;48.00;;;;;12.69;41.88;102543.75;5039929;28;45459;-58
2022/03/25 07:47:09;;;;;;;;;67.50;47.50;;;;;12.73;42.10;102536.56;5040203;28;45175;-58
2022/03/25 07:49:35;;;;;;;;;66.00;50.25;;;;;12.77;41.55;102544.31;5041417;28;45417;-58
2022/03/25 07:52:03;;;;;;;;;53.75;42.75;;;;;12.79;41.95;102539.81;5050002;28;45518;-58
2022/03/25 07:54:28;;;;;;;;;68.00;51.33;;;;;12.84;41.83;102551.06;5051680;28;45486;-58
2022/03/25 07:56:57;;;;;;;;;59.75;45.50;;;;;12.93;41.65;102546.34;5050609;28;45503;-59
2022/03/25 07:59:23;;;;;;;;;64.25;50.00;;;;;12.99;41.49;102549.59;5055084;28;45482;-58
2022/03/25 08:01:49;;;;;;;;;69.00;50.00;;;;;13.05;41.56;102545.84;5056333;28;45546;-58
2022/03/25 08:04:14;;;;;;;;;63.50;48.00;;;;;13.12;41.25;102549.97;5054633;28;45543;-60
2022/03/25 08:06:41;;;;;;;;;65.00;50.00;;;;;13.18;40.88;102555.00;5053498;28;45569;-58
2022/03/25 08:09:06;;;;;;;;;67.00;50.00;;;;;13.24;40.75;102548.63;5051835;28;45474;-59
2022/03/25 08:11:32;;;;;;;;;64.50;47.75;;;;;13.29;40.84;102557.25;5044258;28;45787;-58
2022/03/25 08:13:57;;;;;;;;;67.25;48.50;;;;;13.33;40.55;102549.09;5047053;28;45790;-58
2022/03/25 08:16:23;;;;;;;;;61.75;47.00;;;;;13.40;40.49;102555.88;5048469;28;45506;-59
2022/03/25 08:18:48;;;;;;;;;69.75;49.75;;;;;13.48;40.25;102557.31;5048906;28;45424;-59
2022/03/25 08:21:14;;;;;;;;;65.75;50.50;;;;;13.55;40.58;102553.50;5050162;28;45680;-59
2022/03/25 08:29:09;;;;;;;;;62.00;46.00;;;;;13.72;39.80;102552.78;5047910;28;45445;-59
2022/03/25 08:31:35;;;;;;;;;60.75;48.75;;;;;13.79;39.81;102548.94;5050355;28;46206;-59
2022/03/25 08:34:02;;;;;;;;;63.75;48.75;;;;;13.88;39.63;102549.38;5050395;28;45982;-59
2022/03/25 08:36:28;;;;;;;;;62.25;47.25;;;;;13.97;39.31;102551.63;5051993;28;45352;-59
2022/03/25 08:38:54;;;;;;;;;63.00;47.00;;;;;14.04;39.38;102556.66;5053861;28;45337;-59
2022/03/25 08:41:19;;;;;;;;;65.50;49.25;;;;;14.11;39.23;102550.16;5050449;28;45360;-59
2022/03/25 08:43:47;;;;;;;;;60.25;46.75;;;;;14.19;38.73;102554.16;5049887;28;45588;-59
2022/03/25 08:46:13;;;;;;;;;62.50;47.75;;;;;14.25;38.68;102556.53;5051813;28;45527;-59
2022/03/25 08:48:39;;;;;;;;;71.67;52.67;;;;;14.33;38.74;102556.19;5051736;28;45401;-60
2022/03/25 08:51:05;;;;;;;;;60.50;45.00;;;;;14.40;38.92;102557.63;5050383;28;45508;-59
2022/03/25 08:53:30;;;;;;;;;63.00;43.50;;;;;14.47;39.40;102553.81;5050023;28;45775;-60
2022/03/25 08:55:56;;;;;;;;;61.25;49.25;;;;;14.59;38.63;102555.00;5049249;28;45364;-58
2022/03/25 08:58:22;;;;;;;;;63.00;47.75;;;;;14.69;38.49;102558.97;5048676;28;45867;-60
2022/03/25 09:00:47;;;;;;;;;69.75;50.00;;;;;14.78;38.15;102557.66;5048333;28;45729;-59
2022/03/25 09:03:13;;;;;;;;;70.75;50.00;;;;;14.86;38.07;102550.19;5048973;28;45556;-59
2022/03/25 09:05:39;;;;;;;;;68.00;51.75;;;;;14.96;38.31;102547.94;5050665;28;45673;-59
2022/03/25 09:08:05;;;;;;;;;71.25;49.00;;;;;15.08;37.86;102557.94;5051025;28;45511;-59
2022/03/25 09:10:30;;;;;;;;;66.75;50.00;;;;;15.18;37.81;102558.38;5053009;28;45555;-59
2022/03/25 09:12:56;;;;;;;;;68.00;46.50;;;;;15.28;37.64;102557.81;5048613;28;45513;-59
2022/03/25 09:15:22;;;;;;;;;70.75;49.50;;;;;15.37;37.26;102551.19;5050209;28;45526;-58
2022/03/25 09:17:49;;;;;;;;;68.75;49.50;;;;;15.51;37.40;102553.16;5047572;28;45807;-60
2022/03/25 09:20:15;;;;;;;;;63.50;48.00;;;;;15.62;37.10;102551.69;5049993;28;46288;-59
2022/03/25 09:22:42;;;;;;;;;70.75;50.75;;;;;15.76;36.62;102555.44;5049915;28;45808;-60
2022/03/25 09:25:09;;;;;;;;;65.50;47.50;;;;;15.88;36.56;102555.66;5050566;28;45488;-59
2022/03/25 09:27:35;;;;;;;;;68.25;50.25;;;;;15.96;36.49;102546.41;5052295;28;45486;-59
2022/03/25 09:30:02;;;;;;;;;59.25;46.50;;;;;16.04;36.48;102550.41;5050053;28;46098;-60
2022/03/25 09:32:28;;;;;;;;;68.50;50.75;;;;;16.13;36.21;102549.91;5050317;28;45438;-58
2022/03/25 09:35:09;;;;;;;;;64.00;50.00;;;;;16.23;36.11;102550.25;5048020;28;45478;-58
2022/03/25 09:37:53;;;;;;;;;66.00;49.50;;;;;16.30;35.79;102556.97;5048202;28;45624;-60
2022/03/25 09:40:23;;;;;;;;;66.75;51.50;;;;;16.38;36.00;102559.19;5050717;28;45371;-60
2022/03/25 09:42:51;;;;;;;;;59.50;48.25;;;;;16.47;35.61;102546.25;5049067;28;45449;-59
2022/03/25 09:45:19;;;;;;;;;66.75;48.25;;;;;16.57;35.11;102551.91;5048158;28;45451;-59
2022/03/25 09:47:47;;;;;;;;;73.25;50.25;;;;;16.63;35.40;102545.41;5047361;28;45486;-59
2022/03/25 09:50:21;;;;;;;;;71.25;51.25;;;;;16.73;35.40;102557.28;5046362;28;45534;-60
2022/03/25 09:52:48;;;;;;;;;64.00;49.75;;;;;16.81;34.87;102549.72;5047789;28;45460;-60
2022/03/25 09:55:14;;;;;;;;;68.00;49.25;;;;;16.89;35.12;102551.94;5048817;28;45385;-59
2022/03/25 09:57:40;;;;;;;;;71.25;51.50;;;;;16.98;34.88;102544.31;5050125;28;45550;-60
2022/03/25 10:00:07;;;;;;;;;63.50;49.00;;;;;17.09;34.50;102548.16;5049868;28;46472;-62
2022/03/25 10:02:33;;;;;;;;;68.75;51.00;;;;;17.16;34.20;102550.38;5050208;28;45655;-60
2022/03/25 10:04:58;;;;;;;;;66.00;51.75;;;;;17.21;34.24;102548.28;5049394;28;46484;-61
2022/03/25 10:07:27;;;;;;;;;72.25;52.25;;;;;17.26;34.24;102540.88;5048805;28;45881;-60
2022/03/25 10:10:08;;;;;;;;;57.75;40.00;;;;;17.32;33.61;102542.34;5031972;28;45607;-59
2022/03/25 10:12:34;;;;;;;;;66.25;50.25;;;;;17.33;33.63;102537.88;5044134;28;45386;-58
2022/03/25 10:15:22;;;;;;;;;68.75;50.25;;;;;17.37;33.61;102548.22;5047739;28;45490;-58
2022/03/25 10:17:57;;;;;;;;;65.50;50.50;;;;;17.41;33.30;102535.59;5050348;28;45517;-61
2022/03/25 10:20:26;;;;;;;;;62.50;47.75;;;;;17.47;33.29;102540.56;5047899;28;46218;-60
2022/03/25 10:23:05;;;;;;;;;70.50;51.75;;;;;17.51;33.23;102534.94;5047562;28;45419;-59
2022/03/25 10:25:33;;;;;;;;;69.50;53.00;;;;;17.53;32.94;102532.19;5050131;28;45455;-62
2022/03/25 10:27:58;;;;;;;;;67.00;52.50;;;;;17.56;33.31;102529.34;5050148;28;45422;-59
2022/03/25 10:30:37;;;;;;;;;71.25;55.25;;;;;17.65;33.27;102530.59;5048243;28;45983;-59
2022/03/25 10:33:10;;;;;;;;;72.25;50.75;;;;;17.73;33.63;102529.22;5048566;28;45575;-59
2022/03/25 10:35:56;;;;;;;;;71.00;53.25;;;;;17.76;33.26;102529.03;5046868;28;45465;-60
2022/03/25 10:38:22;;;;;;;;;71.75;54.00;;;;;17.89;33.20;102528.28;5047005;28;45639;-60
2022/03/25 10:40:56;;;;;;;;;61.25;45.00;;;;;17.98;33.30;102525.03;5049944;28;45526;-60
2022/03/25 10:43:23;;;;;;;;;68.25;51.25;;;;;18.05;32.54;102527.25;5048018;28;45371;-61
2022/03/25 10:45:49;;;;;;;;;72.25;53.75;;;;;18.08;32.11;102535.03;5048293;28;45515;-60
2022/03/25 10:48:21;;;;;;;;;64.75;46.75;;;;;18.09;32.29;102526.09;5049609;28;45521;-60
2022/03/25 10:51:01;;;;;;;;;69.50;51.50;;;;;18.10;32.17;102529.63;5049214;28;45494;-56
2022/03/25 10:53:28;;;;;;;;;61.75;48.75;;;;;18.11;31.94;102532.19;5050706;28;45512;-56
2022/03/25 10:55:59;;;;;;;;;67.75;50.25;;;;;18.14;31.88;102523.13;5048618;28;45511;-57
2022/03/25 10:58:25;;;;;;;;;62.75;50.00;;;;;18.19;32.38;102525.53;5049284;28;45808;-59
2022/03/25 11:00:51;;;;;;;;;65.25;49.50;;;;;18.22;31.96;102531.50;5047523;28;45885;-63
2022/03/25 11:03:17;;;;;;;;;65.50;51.75;;;;;18.26;32.01;102525.03;5047400;28;45872;-58
2022/03/25 11:05:44;;;;;;;;;69.25;51.00;;;;;18.29;32.13;102527.50;5047625;28;45608;-58
2022/03/25 11:08:10;;;;;;;;;68.75;50.50;;;;;18.31;31.72;102522.06;5044323;28;45675;-57
2022/03/25 11:10:38;;;;;;;;;65.75;49.50;;;;;18.33;31.96;102526.38;5049767;28;46384;-57
2022/03/25 11:13:04;;;;;;;;;70.50;50.75;;;;;18.36;31.97;102518.16;5049163;28;45380;-57